createdAt,value
2019-02-18T00:00:05.319Z,68.59
2019-02-18T00:01:05.331Z,68.59
2019-02-18T00:02:05.344Z,68.38
2019-02-18T00:03:05.298Z,68.62
2019-02-18T00:04:05.269Z,68.17
2019-02-18T00:05:05.275Z,68.51
2019-02-18T00:06:05.265Z,67.97
2019-02-18T00:07:14.221Z,68.38
2019-02-18T00:08:06.417Z,68.48
2019-02-18T00:09:05.217Z,68.21
2019-02-18T00:10:05.207Z,68.59
2019-02-18T00:11:05.193Z,68.10
2019-02-18T00:12:05.216Z,68.51
2019-02-18T00:13:05.181Z,68.21
2019-02-18T00:14:05.168Z,68.51
2019-02-18T00:15:05.141Z,68.41
2019-02-18T00:16:05.131Z,68.62
2019-02-18T00:17:05.142Z,68.93
2019-02-18T00:18:05.140Z,69.75
2019-02-18T00:19:05.126Z,69.24
2019-02-18T00:20:05.097Z,69.03
2019-02-18T00:21:05.074Z,68.62
2019-02-18T00:22:05.082Z,68.72
2019-02-18T00:23:05.070Z,68.62
2019-02-18T00:24:05.047Z,68.72
2019-02-18T00:25:05.033Z,68.62
2019-02-18T00:26:05.039Z,68.10
2019-02-18T00:27:05.042Z,68.10
2019-02-18T00:28:05.005Z,68.44
2019-02-18T00:29:04.992Z,69.13
2019-02-18T00:30:04.981Z,69.27
2019-02-18T00:31:04.970Z,69.30
2019-02-18T00:32:05.955Z,70.40
2019-02-18T00:33:04.966Z,69.68
2019-02-18T00:34:04.928Z,69.58
2019-02-18T00:35:04.949Z,70.75
2019-02-18T00:36:04.922Z,69.89
2019-02-18T00:37:04.936Z,70.12
2019-02-18T00:38:04.924Z,70.23
2019-02-18T00:39:04.878Z,70.33
2019-02-18T00:40:04.882Z,70.75
2019-02-18T00:41:04.857Z,70.64
2019-02-18T00:42:04.841Z,70.54
2019-02-18T00:43:04.854Z,70.54
2019-02-18T00:44:04.836Z,70.03
2019-02-18T00:45:04.859Z,70.64
2019-02-18T00:46:04.790Z,70.20
2019-02-18T00:47:04.794Z,70.12
2019-02-18T00:48:04.804Z,70.43
2019-02-18T00:49:04.785Z,70.64
2019-02-18T00:50:04.779Z,70.64
2019-02-18T00:51:04.744Z,71.19
2019-02-18T00:52:04.730Z,71.50
2019-02-18T00:53:04.715Z,71.19
2019-02-18T00:54:04.717Z,71.19
2019-02-18T00:55:04.701Z,71.19
2019-02-18T00:56:04.690Z,71.71
2019-02-18T00:57:04.717Z,71.61
2019-02-18T00:58:04.679Z,71.61
2019-02-18T00:59:04.667Z,71.74
2019-02-18T01:00:04.634Z,72.36
2019-02-18T01:01:04.638Z,71.81
2019-02-18T01:02:04.678Z,71.92
2019-02-18T01:03:04.605Z,71.92
2019-02-18T01:04:04.627Z,71.81
2019-02-18T01:05:04.624Z,72.64
2019-02-18T01:06:04.580Z,71.71
2019-02-18T01:07:04.580Z,71.61
2019-02-18T01:08:04.547Z,71.71
2019-02-18T01:09:04.604Z,70.88
2019-02-18T01:10:04.534Z,71.09
2019-02-18T01:11:04.537Z,71.19
2019-02-18T01:12:04.533Z,71.40
2019-02-18T01:13:04.499Z,71.19
2019-02-18T01:14:04.513Z,71.09
2019-02-18T01:15:04.498Z,71.19
2019-02-18T01:16:04.470Z,71.09
2019-02-18T01:17:04.450Z,70.88
2019-02-18T01:18:04.443Z,70.98
2019-02-18T01:19:04.454Z,71.09
2019-02-18T01:20:04.415Z,70.75
2019-02-18T01:21:04.400Z,70.78
2019-02-18T01:22:04.393Z,71.09
2019-02-18T01:23:04.393Z,71.19
2019-02-18T01:24:04.386Z,70.85
2019-02-18T01:25:04.397Z,70.64
2019-02-18T01:26:04.365Z,70.78
2019-02-18T01:27:04.341Z,71.06
2019-02-18T01:28:04.326Z,71.19
2019-02-18T01:29:04.330Z,70.78
2019-02-18T01:30:04.311Z,71.19
2019-02-18T01:31:04.310Z,70.98
2019-02-18T01:32:04.281Z,71.09
2019-02-18T01:33:04.299Z,71.40
2019-02-18T01:34:04.308Z,71.61
2019-02-18T01:35:04.266Z,71.61
2019-02-18T01:36:04.231Z,71.81
2019-02-18T01:37:04.227Z,71.61
2019-02-18T01:38:04.232Z,71.92
2019-02-18T01:39:04.206Z,72.02
2019-02-18T01:40:04.216Z,72.43
2019-02-18T01:41:04.258Z,72.22
2019-02-18T01:42:04.188Z,72.12
2019-02-18T01:43:04.182Z,71.95
2019-02-18T01:44:04.142Z,71.92
2019-02-18T01:45:04.180Z,71.74
2019-02-18T01:46:04.140Z,72.26
2019-02-18T01:47:04.149Z,71.95
2019-02-18T01:48:04.157Z,72.16
2019-02-18T01:49:04.105Z,72.05
2019-02-18T01:50:04.097Z,71.53
2019-02-18T01:51:04.066Z,71.95
2019-02-18T01:52:04.056Z,71.95
2019-02-18T01:53:04.062Z,72.16
2019-02-18T01:54:04.052Z,72.50
2019-02-18T01:55:04.046Z,72.60
2019-02-18T01:56:04.010Z,72.47
2019-02-18T01:57:04.000Z,72.91
2019-02-18T01:58:04.002Z,72.91
2019-02-18T01:59:03.976Z,72.91
2019-02-18T02:00:03.983Z,72.71
2019-02-18T02:01:03.951Z,72.60
2019-02-18T02:02:03.946Z,72.60
2019-02-18T02:03:03.930Z,72.81
2019-02-18T02:04:03.930Z,72.91
2019-02-18T02:05:03.970Z,73.46
2019-02-18T02:06:03.904Z,73.25
2019-02-18T02:07:03.889Z,73.36
2019-02-18T02:08:03.902Z,73.67
2019-02-18T02:09:03.865Z,73.36
2019-02-18T02:10:03.869Z,73.46
2019-02-18T02:11:03.856Z,73.36
2019-02-18T02:12:03.836Z,73.36
2019-02-18T02:13:03.817Z,73.46
2019-02-18T02:14:03.814Z,73.57
2019-02-18T02:15:03.813Z,73.46
2019-02-18T02:16:03.927Z,73.67
2019-02-18T02:17:03.774Z,73.46
2019-02-18T02:18:03.798Z,73.36
2019-02-18T02:19:03.802Z,73.46
2019-02-18T02:20:03.746Z,73.02
2019-02-18T02:21:03.744Z,73.15
2019-02-18T02:22:03.738Z,73.36
2019-02-18T02:23:03.749Z,73.36
2019-02-18T02:24:03.695Z,73.46
2019-02-18T02:25:03.691Z,72.64
2019-02-18T02:26:03.695Z,72.85
2019-02-18T02:27:03.673Z,72.85
2019-02-18T02:28:03.656Z,73.25
2019-02-18T02:29:03.646Z,73.46
2019-02-18T02:30:03.672Z,73.05
2019-02-18T02:31:03.637Z,72.85
2019-02-18T02:32:03.657Z,73.36
2019-02-18T02:33:03.623Z,73.05
2019-02-18T02:34:03.590Z,72.94
2019-02-18T02:35:03.594Z,73.36
2019-02-18T02:36:03.598Z,73.15
2019-02-18T02:37:03.570Z,73.15
2019-02-18T02:38:07.539Z,73.46
2019-02-18T02:39:03.538Z,73.15
2019-02-18T02:40:03.530Z,73.36
2019-02-18T02:41:03.579Z,73.36
2019-02-18T02:42:03.498Z,73.57
2019-02-18T02:43:03.491Z,73.57
2019-02-18T02:44:03.479Z,73.36
2019-02-18T02:45:03.488Z,73.36
2019-02-18T02:46:03.490Z,73.25
2019-02-18T02:47:03.448Z,73.46
2019-02-18T02:48:03.446Z,73.46
2019-02-18T02:49:03.427Z,73.57
2019-02-18T02:50:03.420Z,73.36
2019-02-18T02:51:03.399Z,73.05
2019-02-18T02:52:03.420Z,73.36
2019-02-18T02:53:03.391Z,73.36
2019-02-18T02:54:03.373Z,73.57
2019-02-18T02:55:03.360Z,73.46
2019-02-18T02:56:03.347Z,73.46
2019-02-18T02:57:03.353Z,73.15
2019-02-18T02:58:03.342Z,73.77
2019-02-18T02:59:03.333Z,73.67
2019-02-18T03:00:03.298Z,74.19
2019-02-18T03:01:03.290Z,73.88
2019-02-18T03:02:03.298Z,73.98
2019-02-18T03:03:03.279Z,73.98
2019-02-18T03:04:03.262Z,74.19
2019-02-18T03:05:03.285Z,73.98
2019-02-18T03:06:03.232Z,73.98
2019-02-18T03:07:03.248Z,74.29
2019-02-18T03:08:03.209Z,74.40
2019-02-18T03:09:03.218Z,74.81
2019-02-18T03:10:03.193Z,74.81
2019-02-18T03:11:03.194Z,74.71
2019-02-18T03:12:03.187Z,74.84
2019-02-18T03:13:03.173Z,75.15
2019-02-18T03:14:03.140Z,74.95
2019-02-18T03:15:03.132Z,74.95
2019-02-18T03:16:03.120Z,75.15
2019-02-18T03:17:03.122Z,75.05
2019-02-18T03:18:03.121Z,75.05
2019-02-18T03:19:03.097Z,74.81
2019-02-18T03:20:03.077Z,75.26
2019-02-18T03:21:03.064Z,75.12
2019-02-18T03:22:03.075Z,75.36
2019-02-18T03:23:03.044Z,75.05
2019-02-18T03:24:03.081Z,74.95
2019-02-18T03:25:03.036Z,75.26
2019-02-18T03:26:03.010Z,75.05
2019-02-18T03:27:03.016Z,75.78
2019-02-18T03:28:03.036Z,75.46
2019-02-18T03:29:02.976Z,75.26
2019-02-18T03:30:02.990Z,75.05
2019-02-18T03:31:02.959Z,74.84
2019-02-18T03:32:02.950Z,75.22
2019-02-18T03:33:02.969Z,74.84
2019-02-18T03:34:02.933Z,74.63
2019-02-18T03:35:02.914Z,74.95
2019-02-18T03:36:02.912Z,74.53
2019-02-18T03:37:02.887Z,75.05
2019-02-18T03:38:02.885Z,74.53
2019-02-18T03:39:02.865Z,74.63
2019-02-18T03:40:02.880Z,74.50
2019-02-18T03:41:03.626Z,74.60
2019-02-18T03:42:02.834Z,74.81
2019-02-18T03:43:02.895Z,74.74
2019-02-18T03:44:02.825Z,75.05
2019-02-18T03:45:02.817Z,74.84
2019-02-18T03:46:02.785Z,75.05
2019-02-18T03:47:02.784Z,74.95
2019-02-18T03:48:02.777Z,74.74
2019-02-18T03:49:02.749Z,74.81
2019-02-18T03:50:02.748Z,74.84
2019-02-18T03:51:02.758Z,75.12
2019-02-18T03:52:02.746Z,74.74
2019-02-18T03:53:02.724Z,74.32
2019-02-18T03:54:02.704Z,74.43
2019-02-18T03:55:02.692Z,74.95
2019-02-18T03:56:02.705Z,74.95
2019-02-18T03:57:02.667Z,75.26
2019-02-18T03:58:02.690Z,75.05
2019-02-18T03:59:02.804Z,75.50
2019-02-18T04:00:02.648Z,75.50
2019-02-18T04:01:02.612Z,75.50
2019-02-18T04:02:02.603Z,75.60
2019-02-18T04:03:02.609Z,75.71
2019-02-18T04:04:02.631Z,75.40
2019-02-18T04:05:02.584Z,75.29
2019-02-18T04:06:02.562Z,75.46
2019-02-18T04:07:02.552Z,75.67
2019-02-18T04:08:02.556Z,75.57
2019-02-18T04:09:02.551Z,75.81
2019-02-18T04:10:02.513Z,75.50
2019-02-18T04:11:02.514Z,75.81
2019-02-18T04:12:02.522Z,75.81
2019-02-18T04:13:02.485Z,76.32
2019-02-18T04:14:02.509Z,76.12
2019-02-18T04:15:02.470Z,76.02
2019-02-18T04:16:02.479Z,75.92
2019-02-18T04:17:02.478Z,75.81
2019-02-18T04:18:02.446Z,76.05
2019-02-18T04:19:02.450Z,76.02
2019-02-18T04:20:02.409Z,75.43
2019-02-18T04:21:02.393Z,76.98
2019-02-18T04:22:02.428Z,76.67
2019-02-18T04:23:02.371Z,76.57
2019-02-18T04:24:02.374Z,76.67
2019-02-18T04:25:02.362Z,76.46
2019-02-18T04:26:02.354Z,76.57
2019-02-18T04:27:02.323Z,76.53
2019-02-18T04:28:02.337Z,76.26
2019-02-18T04:29:02.337Z,76.67
2019-02-18T04:30:02.311Z,76.57
2019-02-18T04:31:02.302Z,76.46
2019-02-18T04:32:02.295Z,76.36
2019-02-18T04:33:02.257Z,76.15
2019-02-18T04:34:02.262Z,76.26
2019-02-18T04:35:02.235Z,76.57
2019-02-18T04:36:02.292Z,76.15
2019-02-18T04:37:02.220Z,76.98
2019-02-18T04:38:02.200Z,76.67
2019-02-18T04:39:02.203Z,76.46
2019-02-18T04:40:02.196Z,76.98
2019-02-18T04:41:02.172Z,76.57
2019-02-18T04:42:02.174Z,76.15
2019-02-18T04:43:02.167Z,76.05
2019-02-18T04:44:02.135Z,76.67
2019-02-18T04:45:02.147Z,76.57
2019-02-18T04:46:02.113Z,76.26
2019-02-18T04:47:02.101Z,76.26
2019-02-18T04:48:02.097Z,76.46
2019-02-18T04:49:02.103Z,75.50
2019-02-18T04:50:02.092Z,76.78
2019-02-18T04:51:02.059Z,76.15
2019-02-18T04:52:02.051Z,76.88
2019-02-18T04:53:02.058Z,76.98
2019-02-18T04:54:02.045Z,76.46
2019-02-18T04:55:02.038Z,76.15
2019-02-18T04:56:02.015Z,76.26
2019-02-18T04:57:02.021Z,76.36
2019-02-18T04:58:01.976Z,76.36
2019-02-18T04:59:01.987Z,75.95
2019-02-18T05:00:01.983Z,75.95
2019-02-18T05:01:02.963Z,76.78
2019-02-18T05:02:01.944Z,76.26
2019-02-18T05:03:01.930Z,76.26
2019-02-18T05:04:01.912Z,76.15
2019-02-18T05:05:01.914Z,76.46
2019-02-18T05:06:01.905Z,76.46
2019-02-18T05:07:01.879Z,75.43
2019-02-18T05:08:01.879Z,75.63
2019-02-18T05:09:05.432Z,76.46
2019-02-18T05:10:01.911Z,76.98
2019-02-18T05:11:01.844Z,76.46
2019-02-18T05:12:01.830Z,76.46
2019-02-18T05:13:01.833Z,75.53
2019-02-18T05:14:01.827Z,75.74
2019-02-18T05:15:01.822Z,75.63
2019-02-18T05:16:01.775Z,76.67
2019-02-18T05:17:01.767Z,76.26
2019-02-18T05:18:01.753Z,75.74
2019-02-18T05:19:01.743Z,75.84
2019-02-18T05:20:01.757Z,75.84
2019-02-18T05:21:01.721Z,75.63
2019-02-18T05:22:01.762Z,75.63
2019-02-18T05:23:01.735Z,75.74
2019-02-18T05:24:01.699Z,75.84
2019-02-18T05:25:01.730Z,76.57
2019-02-18T05:26:01.662Z,76.46
2019-02-18T05:27:01.671Z,76.26
2019-02-18T05:28:01.640Z,76.46
2019-02-18T05:29:01.645Z,76.36
2019-02-18T05:30:01.661Z,76.61
2019-02-18T05:31:01.625Z,76.71
2019-02-18T05:32:01.780Z,76.61
2019-02-18T05:33:01.590Z,76.81
2019-02-18T05:34:01.611Z,76.71
2019-02-18T05:35:01.625Z,76.05
2019-02-18T05:36:01.553Z,76.36
2019-02-18T05:37:01.576Z,76.46
2019-02-18T05:38:01.613Z,75.53
2019-02-18T05:39:01.581Z,76.61
2019-02-18T05:40:01.522Z,76.57
2019-02-18T05:41:01.493Z,76.46
2019-02-18T05:42:01.524Z,76.67
2019-02-18T05:43:01.473Z,76.88
2019-02-18T05:44:01.464Z,76.46
2019-02-18T05:45:01.451Z,76.15
2019-02-18T05:46:01.512Z,76.05
2019-02-18T05:47:01.429Z,75.78
2019-02-18T05:48:01.427Z,75.88
2019-02-18T05:49:01.420Z,76.61
2019-02-18T05:50:01.483Z,75.67
2019-02-18T05:51:01.413Z,75.98
2019-02-18T05:52:01.374Z,76.61
2019-02-18T05:53:01.399Z,76.92
2019-02-18T05:54:01.353Z,75.78
2019-02-18T05:55:01.400Z,75.78
2019-02-18T05:56:01.350Z,76.09
2019-02-18T05:57:01.320Z,75.78
2019-02-18T05:58:01.311Z,75.88
2019-02-18T05:59:01.379Z,75.78
2019-02-18T06:00:01.302Z,76.61
2019-02-18T06:01:01.293Z,76.40
2019-02-18T06:02:01.333Z,76.43
2019-02-18T06:03:01.254Z,76.75
2019-02-18T06:04:01.265Z,77.06
2019-02-18T06:05:01.228Z,77.16
2019-02-18T06:06:01.259Z,76.54
2019-02-18T06:07:01.214Z,76.95
2019-02-18T06:08:01.249Z,76.64
2019-02-18T06:09:01.208Z,76.54
2019-02-18T06:10:01.172Z,77.09
2019-02-18T06:11:01.183Z,76.89
2019-02-18T06:12:01.146Z,77.09
2019-02-18T06:13:01.141Z,76.78
2019-02-18T06:14:01.125Z,76.57
2019-02-18T06:15:01.181Z,77.51
2019-02-18T06:16:01.122Z,77.30
2019-02-18T06:17:02.832Z,77.85
2019-02-18T06:18:01.091Z,77.85
2019-02-18T06:19:01.075Z,77.75
2019-02-18T06:20:01.057Z,78.58
2019-02-18T06:21:01.066Z,78.37
2019-02-18T06:22:01.055Z,78.47
2019-02-18T06:23:01.048Z,78.27
2019-02-18T06:24:01.017Z,77.44
2019-02-18T06:25:01.002Z,78.06
2019-02-18T06:26:01.075Z,77.85
2019-02-18T06:27:01.003Z,77.85
2019-02-18T06:28:00.980Z,78.06
2019-02-18T06:29:01.007Z,77.95
2019-02-18T06:30:00.959Z,77.54
2019-02-18T06:31:00.944Z,77.33
2019-02-18T06:32:00.945Z,77.54
2019-02-18T06:33:01.258Z,77.64
2019-02-18T06:34:00.900Z,76.92
2019-02-18T06:35:00.907Z,76.71
2019-02-18T06:36:00.934Z,77.02
2019-02-18T06:37:00.865Z,77.33
2019-02-18T06:38:00.903Z,76.81
2019-02-18T06:39:00.892Z,76.81
2019-02-18T06:40:00.836Z,76.71
2019-02-18T06:41:00.834Z,76.61
2019-02-18T06:42:00.830Z,76.81
2019-02-18T06:43:00.815Z,77.23
2019-02-18T06:44:00.792Z,76.57
2019-02-18T06:45:00.776Z,76.61
2019-02-18T06:46:00.799Z,76.57
2019-02-18T06:47:00.792Z,75.95
2019-02-18T06:48:00.794Z,76.68
2019-02-18T06:49:00.766Z,75.85
2019-02-18T06:50:00.741Z,76.26
2019-02-18T06:51:00.715Z,75.95
2019-02-18T06:52:00.714Z,76.26
2019-02-18T06:53:00.728Z,75.95
2019-02-18T06:54:00.700Z,76.26
2019-02-18T06:55:00.665Z,75.54
2019-02-18T06:56:00.678Z,75.74
2019-02-18T06:57:00.719Z,75.85
2019-02-18T06:58:00.629Z,76.57
2019-02-18T06:59:00.621Z,75.85
2019-02-18T07:00:00.627Z,75.64
2019-02-18T07:01:00.616Z,75.40
2019-02-18T07:02:00.662Z,75.71
2019-02-18T07:03:00.592Z,75.50
2019-02-18T07:04:00.567Z,75.92
2019-02-18T07:05:00.566Z,75.60
2019-02-18T07:06:00.572Z,75.81
2019-02-18T07:07:00.556Z,75.60
2019-02-18T07:08:00.546Z,75.92
2019-02-18T07:09:00.510Z,75.33
2019-02-18T07:10:00.589Z,75.92
2019-02-18T07:11:00.489Z,76.02
2019-02-18T07:12:00.517Z,75.29
2019-02-18T07:13:00.492Z,75.29
2019-02-18T07:14:00.457Z,75.29
2019-02-18T07:15:00.511Z,75.40
2019-02-18T07:16:00.434Z,74.98
2019-02-18T07:17:00.442Z,75.09
2019-02-18T07:18:00.445Z,74.67
2019-02-18T07:19:00.433Z,74.84
2019-02-18T07:20:00.442Z,74.74
2019-02-18T07:21:00.378Z,74.46
2019-02-18T07:22:00.371Z,74.11
2019-02-18T07:23:00.366Z,74.22
2019-02-18T07:24:00.351Z,74.11
2019-02-18T07:25:00.359Z,73.80
2019-02-18T07:26:00.321Z,73.70
2019-02-18T07:27:00.306Z,73.80
2019-02-18T07:28:00.307Z,73.28
2019-02-18T07:29:00.285Z,72.98
2019-02-18T07:30:00.390Z,73.18
2019-02-18T07:31:00.293Z,73.39
2019-02-18T07:32:00.293Z,73.39
2019-02-18T07:33:00.250Z,73.05
2019-02-18T07:34:00.268Z,72.74
2019-02-18T07:35:00.377Z,72.53
2019-02-18T07:36:00.224Z,72.22
2019-02-18T07:37:00.196Z,72.42
2019-02-18T07:38:00.206Z,72.42
2019-02-18T07:39:00.173Z,72.42
2019-02-18T07:40:02.045Z,72.53
2019-02-18T07:41:00.157Z,72.11
2019-02-18T07:42:00.161Z,72.22
2019-02-18T07:43:00.150Z,71.80
2019-02-18T07:44:00.164Z,72.08
2019-02-18T07:45:00.281Z,72.08
2019-02-18T07:46:00.100Z,71.88
2019-02-18T07:47:00.112Z,71.67
2019-02-18T07:48:00.102Z,71.15
2019-02-18T07:49:00.059Z,71.33
2019-02-18T07:50:00.051Z,70.70
2019-02-18T07:51:00.106Z,70.60
2019-02-18T07:52:00.049Z,70.39
2019-02-18T07:53:00.083Z,70.67
2019-02-18T07:54:00.062Z,70.08
2019-02-18T07:54:59.997Z,70.29
2019-02-18T07:55:59.993Z,70.26
2019-02-18T07:56:59.970Z,70.57
2019-02-18T07:57:59.984Z,70.05
2019-02-18T07:59:00.892Z,69.50
2019-02-18T07:59:59.954Z,69.19
2019-02-18T08:00:59.955Z,68.77
2019-02-18T08:01:59.923Z,68.77
2019-02-18T08:02:59.926Z,68.77
2019-02-18T08:03:59.914Z,68.54
2019-02-18T08:05:02.182Z,68.02
2019-02-18T08:05:59.899Z,68.12
2019-02-18T08:06:59.857Z,67.91
2019-02-18T08:07:59.867Z,67.50
2019-02-18T08:08:59.852Z,67.47
2019-02-18T08:09:59.840Z,66.85
2019-02-18T08:10:59.825Z,66.96
2019-02-18T08:11:59.808Z,66.96
2019-02-18T08:12:59.816Z,66.96
2019-02-18T08:13:59.777Z,66.93
2019-02-18T08:14:59.775Z,67.03
2019-02-18T08:15:59.833Z,66.61
2019-02-18T08:16:59.786Z,67.03
2019-02-18T08:17:59.750Z,66.20
2019-02-18T08:18:59.738Z,66.07
2019-02-18T08:19:59.715Z,66.00
2019-02-18T08:20:59.739Z,65.34
2019-02-18T08:21:59.701Z,65.24
2019-02-18T08:22:59.722Z,66.07
2019-02-18T08:24:00.436Z,64.93
2019-02-18T08:24:59.657Z,65.11
2019-02-18T08:25:59.652Z,64.18
2019-02-18T08:26:59.649Z,64.28
2019-02-18T08:27:59.628Z,64.04
2019-02-18T08:28:59.627Z,63.53
2019-02-18T08:29:59.601Z,64.15
2019-02-18T08:30:59.589Z,63.32
2019-02-18T08:31:59.585Z,63.43
2019-02-18T08:32:59.577Z,63.09
2019-02-18T08:33:59.571Z,62.47
2019-02-18T08:34:59.547Z,62.88
2019-02-18T08:35:59.541Z,62.68
2019-02-18T08:36:59.534Z,62.37
2019-02-18T08:37:59.554Z,62.68
2019-02-18T08:38:59.530Z,62.44
2019-02-18T08:39:59.486Z,61.82
2019-02-18T08:40:59.511Z,62.03
2019-02-18T08:41:59.463Z,61.41
2019-02-18T08:42:59.454Z,62.03
2019-02-18T08:43:59.513Z,61.82
2019-02-18T08:44:59.443Z,62.13
2019-02-18T08:45:59.454Z,61.80
2019-02-18T08:46:59.448Z,61.07
2019-02-18T08:47:59.433Z,61.18
2019-02-18T08:48:59.433Z,61.59
2019-02-18T08:49:59.379Z,61.25
2019-02-18T08:50:59.420Z,60.84
2019-02-18T08:51:59.355Z,61.80
2019-02-18T08:52:59.361Z,61.35
2019-02-18T08:53:59.372Z,60.84
2019-02-18T08:54:59.341Z,60.81
2019-02-18T08:55:59.315Z,60.19
2019-02-18T08:56:59.301Z,60.06
2019-02-18T08:57:59.296Z,60.27
2019-02-18T08:58:59.305Z,59.86
2019-02-18T08:59:59.275Z,59.75
2019-02-18T09:01:02.467Z,59.11
2019-02-18T09:01:59.243Z,57.79
2019-02-18T09:02:59.267Z,55.77
2019-02-18T09:03:59.215Z,54.16
2019-02-18T09:04:59.219Z,52.19
2019-02-18T09:05:59.216Z,52.34
2019-02-18T09:06:59.197Z,54.21
2019-02-18T09:07:59.175Z,55.13
2019-02-18T09:08:59.190Z,54.72
2019-02-18T09:09:59.163Z,53.67
2019-02-18T09:10:59.142Z,53.90
2019-02-18T09:11:59.131Z,54.51
2019-02-18T09:12:59.125Z,53.75
2019-02-18T09:13:59.199Z,52.03
2019-02-18T09:14:59.141Z,50.66
2019-02-18T09:16:00.368Z,49.29
2019-02-18T09:16:59.079Z,48.42
2019-02-18T09:17:59.057Z,48.55
2019-02-18T09:18:59.048Z,47.20
2019-02-18T09:19:59.039Z,47.50
2019-02-18T09:20:59.041Z,48.63
2019-02-18T09:21:59.038Z,48.96
2019-02-18T09:22:59.022Z,49.10
2019-02-18T09:23:58.995Z,50.15
2019-02-18T09:24:58.979Z,49.96
2019-02-18T09:25:58.982Z,51.04
2019-02-18T09:26:58.954Z,51.01
2019-02-18T09:27:58.949Z,50.86
2019-02-18T09:28:58.934Z,48.55
2019-02-18T09:29:58.919Z,48.10
2019-02-18T09:30:58.924Z,47.13
2019-02-18T09:31:58.901Z,45.89
2019-02-18T09:32:58.931Z,45.26
2019-02-18T09:33:58.879Z,44.42
2019-02-18T09:35:01.886Z,44.67
2019-02-18T09:35:58.887Z,46.34
2019-02-18T09:36:58.842Z,46.79
2019-02-18T09:37:58.848Z,47.28
2019-02-18T09:38:58.851Z,46.64
2019-02-18T09:39:58.808Z,46.32
2019-02-18T09:40:58.858Z,45.87
2019-02-18T09:41:58.831Z,45.54
2019-02-18T09:42:58.777Z,44.30
2019-02-18T09:43:58.775Z,43.79
2019-02-18T09:44:58.761Z,44.63
2019-02-18T09:45:58.767Z,43.99
2019-02-18T09:46:58.759Z,43.04
2019-02-18T09:47:58.720Z,42.72
2019-02-18T09:48:58.714Z,42.00
2019-02-18T09:49:58.749Z,43.38
2019-02-18T09:51:00.098Z,44.02
2019-02-18T09:51:58.679Z,43.57
2019-02-18T09:52:58.670Z,42.92
2019-02-18T09:53:58.675Z,41.97
2019-02-18T09:54:58.639Z,41.64
2019-02-18T09:55:58.938Z,41.02
2019-02-18T09:56:58.619Z,39.58
2019-02-18T09:57:58.613Z,41.14
2019-02-18T09:58:58.633Z,40.53
2019-02-18T09:59:58.589Z,41.07
2019-02-18T10:00:58.618Z,41.80
2019-02-18T10:01:58.566Z,41.86
2019-02-18T10:02:58.581Z,41.46
2019-02-18T10:03:58.611Z,41.24
2019-02-18T10:04:58.527Z,41.24
2019-02-18T10:05:58.549Z,41.16
2019-02-18T10:06:58.534Z,41.36
2019-02-18T10:07:58.494Z,40.94
2019-02-18T10:08:58.493Z,40.63
2019-02-18T10:09:58.493Z,40.49
2019-02-18T10:10:58.458Z,39.36
2019-02-18T10:11:58.477Z,39.15
2019-02-18T10:12:59.697Z,39.17
2019-02-18T10:13:58.424Z,40.73
2019-02-18T10:14:58.413Z,43.16
2019-02-18T10:15:58.420Z,44.45
2019-02-18T10:16:58.438Z,44.53
2019-02-18T10:17:58.382Z,44.30
2019-02-18T10:18:58.375Z,42.84
2019-02-18T10:19:58.357Z,42.21
2019-02-18T10:20:58.347Z,42.17
2019-02-18T10:21:58.520Z,41.64
2019-02-18T10:22:58.325Z,41.12
2019-02-18T10:23:58.335Z,41.12
2019-02-18T10:24:58.320Z,40.89
2019-02-18T10:25:58.297Z,39.54
2019-02-18T10:26:58.290Z,40.15
2019-02-18T10:27:58.274Z,39.98
2019-02-18T10:28:58.281Z,41.03
2019-02-18T10:29:58.260Z,42.41
2019-02-18T10:30:58.282Z,43.55
2019-02-18T10:31:58.241Z,44.63
2019-02-18T10:32:58.223Z,45.34
2019-02-18T10:33:58.203Z,45.97
2019-02-18T10:34:58.223Z,47.03
2019-02-18T10:35:58.175Z,47.29
2019-02-18T10:36:58.181Z,44.59
2019-02-18T10:37:58.151Z,43.91
2019-02-18T10:38:58.183Z,43.23
2019-02-18T10:39:58.163Z,44.16
2019-02-18T10:41:06.503Z,43.53
2019-02-18T10:41:59.168Z,42.35
2019-02-18T10:42:58.100Z,41.93
2019-02-18T10:43:58.092Z,41.83
2019-02-18T10:44:58.092Z,41.52
2019-02-18T10:45:58.094Z,41.58
2019-02-18T10:46:58.075Z,40.13
2019-02-18T10:47:58.040Z,39.61
2019-02-18T10:48:58.029Z,39.10
2019-02-18T10:49:58.017Z,39.39
2019-02-18T10:50:58.020Z,39.47
2019-02-18T10:51:58.015Z,38.75
2019-02-18T10:52:57.982Z,38.22
2019-02-18T10:53:57.970Z,37.60
2019-02-18T10:54:57.977Z,37.88
2019-02-18T10:55:57.953Z,38.02
2019-02-18T10:56:58.006Z,38.52
2019-02-18T10:57:57.933Z,38.46
2019-02-18T10:58:57.914Z,39.26
2019-02-18T10:59:59.293Z,38.48
2019-02-18T11:00:57.904Z,38.78
2019-02-18T11:01:57.922Z,39.39
2019-02-18T11:02:57.905Z,40.21
2019-02-18T11:03:57.869Z,40.13
2019-02-18T11:04:57.858Z,39.91
2019-02-18T11:05:57.844Z,39.40
2019-02-18T11:06:57.931Z,41.49
2019-02-18T11:07:57.833Z,41.60
2019-02-18T11:08:57.895Z,41.28
2019-02-18T11:09:57.790Z,40.95
2019-02-18T11:10:57.778Z,41.24
2019-02-18T11:11:57.781Z,40.94
2019-02-18T11:12:57.805Z,39.91
2019-02-18T11:13:57.777Z,40.45
2019-02-18T11:14:57.777Z,41.80
2019-02-18T11:15:57.722Z,42.03
2019-02-18T11:16:57.715Z,42.54
2019-02-18T11:17:57.741Z,42.94
2019-02-18T11:18:57.696Z,42.63
2019-02-18T11:19:57.684Z,41.72
2019-02-18T11:20:57.681Z,41.63
2019-02-18T11:21:57.662Z,42.54
2019-02-18T11:22:57.652Z,42.11
2019-02-18T11:23:57.649Z,42.29
2019-02-18T11:24:57.629Z,41.56
2019-02-18T11:25:57.620Z,41.66
2019-02-18T11:26:57.620Z,40.88
2019-02-18T11:27:57.606Z,41.78
2019-02-18T11:28:57.575Z,41.60
2019-02-18T11:29:57.571Z,43.14
2019-02-18T11:30:57.585Z,43.67
2019-02-18T11:31:57.586Z,43.89
2019-02-18T11:32:57.552Z,43.79
2019-02-18T11:33:57.528Z,43.69
2019-02-18T11:34:57.533Z,43.37
2019-02-18T11:35:57.509Z,43.12
2019-02-18T11:36:57.497Z,42.09
2019-02-18T11:37:57.516Z,41.49
2019-02-18T11:38:57.461Z,42.52
2019-02-18T11:39:57.455Z,42.63
2019-02-18T11:40:57.456Z,42.33
2019-02-18T11:41:57.448Z,42.33
2019-02-18T11:42:57.420Z,42.31
2019-02-18T11:43:57.422Z,42.07
2019-02-18T11:44:57.394Z,41.64
2019-02-18T11:45:57.385Z,41.14
2019-02-18T11:46:57.380Z,40.61
2019-02-18T11:47:57.361Z,40.52
2019-02-18T11:48:57.439Z,41.06
2019-02-18T11:49:57.337Z,41.60
2019-02-18T11:50:57.345Z,41.80
2019-02-18T11:51:57.313Z,42.86
2019-02-18T11:52:57.312Z,42.86
2019-02-18T11:53:57.329Z,43.99
2019-02-18T11:54:57.281Z,43.59
2019-02-18T11:55:57.268Z,43.06
2019-02-18T11:56:57.263Z,43.59
2019-02-18T11:57:57.256Z,43.69
2019-02-18T11:58:57.288Z,44.20
2019-02-18T11:59:57.244Z,44.70
2019-02-18T12:00:57.226Z,44.18
2019-02-18T12:01:57.206Z,42.96
2019-02-18T12:03:03.618Z,43.67
2019-02-18T12:03:58.213Z,43.47
2019-02-18T12:04:57.175Z,42.43
2019-02-18T12:05:57.153Z,42.76
2019-02-18T12:06:57.148Z,43.65
2019-02-18T12:07:57.222Z,43.04
2019-02-18T12:08:57.151Z,43.12
2019-02-18T12:09:57.109Z,42.29
2019-02-18T12:10:57.135Z,41.77
2019-02-18T12:11:57.108Z,41.16
2019-02-18T12:12:57.081Z,41.26
2019-02-18T12:13:57.093Z,41.16
2019-02-18T12:14:57.073Z,40.73
2019-02-18T12:15:57.045Z,40.92
2019-02-18T12:16:57.051Z,40.21
2019-02-18T12:17:57.022Z,40.61
2019-02-18T12:18:57.040Z,40.03
2019-02-18T12:19:57.005Z,41.18
2019-02-18T12:20:57.010Z,40.88
2019-02-18T12:21:56.977Z,41.80
2019-02-18T12:22:56.965Z,41.42
2019-02-18T12:23:56.972Z,41.85
2019-02-18T12:24:56.962Z,42.46
2019-02-18T12:25:56.935Z,41.85
2019-02-18T12:26:56.919Z,42.33
2019-02-18T12:27:56.920Z,42.03
2019-02-18T12:28:56.974Z,41.72
2019-02-18T12:29:56.916Z,41.64
2019-02-18T12:30:56.876Z,42.46
2019-02-18T12:31:56.911Z,42.86
2019-02-18T12:32:56.859Z,42.05
2019-02-18T12:33:56.848Z,41.44
2019-02-18T12:34:56.866Z,43.06
2019-02-18T12:35:56.819Z,42.86
2019-02-18T12:36:56.807Z,41.64
2019-02-18T12:37:56.795Z,41.63
2019-02-18T12:38:56.804Z,42.35
2019-02-18T12:39:56.799Z,42.98
2019-02-18T12:40:56.763Z,42.55
2019-02-18T12:41:56.774Z,42.23
2019-02-18T12:42:56.752Z,41.50
2019-02-18T12:43:56.727Z,41.06
2019-02-18T12:44:56.742Z,40.64
2019-02-18T12:45:56.708Z,39.52
2019-02-18T12:46:56.692Z,39.73
2019-02-18T12:47:56.690Z,40.11
2019-02-18T12:48:56.691Z,40.03
2019-02-18T12:49:56.677Z,39.08
2019-02-18T12:50:56.655Z,38.76
2019-02-18T12:51:56.638Z,39.75